Mount Buller, Australia
Current Conditions -  °F | °C
As of 2:00 PM on Sunday 25 Jan 2015 (Local Time) from YMAY Reporting Station
Clear Clear  
Wind Chill: 79°   Ceiling: Unl
Heat Index: 79°   Visibility: 6mi
Dew Point: 50°   Wind: 15mph
Humidity: 36%   Direction: 310°NW
Pressure: 29.71"   Gusts: NA
Location:  37.15°S, 146.45°E
Report Text: YMAY 250300Z AUTO 31013KT 9999 // NCD 26/10 Q1006
Loading
Personal Weather Stations






























Interactive Weather Map New forecast layout! Learn more

10-Day Weather Forecast

Advertisements
Track Severe Weather on mobile